AKST,Max TemperatureF,Mean TemperatureF,Min TemperatureF,Max Dew PointF,MeanDew PointF,Min DewpointF,Max Humidity, Mean Humidity, Min Humidity, Max Sea Level PressureIn, Mean Sea Level PressureIn, Min Sea Level PressureIn, Max VisibilityMiles, Mean VisibilityMiles, Min VisibilityMiles, Max Wind SpeedMPH, Mean Wind SpeedMPH, Max Gust SpeedMPH,PrecipitationIn, CloudCover, Events, WindDirDegrees
2013-2-1,15,10,6,14,12,11,96,92,87,30.16,30.00,29.79,10,2,0,5,1,,0.00,8,Fog,133
2013-2-2,15,8,1,13,9,-1,92,88,81,29.92,29.78,29.54,10,10,10,6,1,,0.00,7,,350
2013-2-3,17,9,1,14,9,5,92,86,77,29.62,29.49,29.36,10,10,10,4,1,,0.00,7,,132
2013-2-4,27,17,3,23,17,1,95,89,79,29.77,29.70,29.46,10,10,10,20,7,,0.00,3,,164
2013-2-5,14,4,-7,8,0,-10,96,87,74,29.75,29.66,29.51,10,6,0,8,3,,0.00,6,Fog,335
2013-2-6,10,1,-8,8,3,0,92,88,76,29.75,29.62,29.48,10,8,1,7,3,,0.01,7,Snow,351
2013-2-7,12,0,-13,9,-3,-17,92,83,69,29.76,29.60,29.33,10,8,1,7,2,,0.01,6,Snow,336
2013-2-8,19,10,0,15,9,1,92,87,76,29.92,29.67,29.36,10,7,0,8,3,,0.08,6,Fog-Snow,165
2013-2-9,35,24,12,31,22,10,96,86,69,29.91,29.53,29.17,10,10,5,22,7,33,0.02,6,Snow,70
2013-2-10,36,30,25,31,25,20,89,70,53,29.49,29.32,29.09,10,10,10,34,23,47,0.00,6,Snow,162
2013-2-11,30,24,17,25,20,12,96,79,58,29.77,29.59,29.47,10,7,1,16,7,,0.08,7,Snow,198
2013-2-12,23,12,0,13,6,-5,88,84,68,29.94,29.89,29.78,10,10,10,7,4,,0.00,6,,342
2013-2-13,32,16,0,15,10,-1,88,65,40,29.96,29.92,29.78,10,10,10,23,8,32,0.00,5,,159
2013-2-14,28,14,1,19,13,5,92,72,39,29.83,29.48,29.31,10,9,2,15,6,,0.02,8,Snow,25
2013-2-15,24,20,15,22,17,9,96,86,59,29.80,29.62,29.41,10,6,1,9,3,,0.04,8,Snow,359
2013-2-16,24,18,10,19,15,8,93,88,69,30.01,29.87,29.70,10,7,1,6,3,,0.04,7,Snow,331
2013-2-17,25,20,15,19,16,9,92,82,72,29.87,29.70,29.54,10,8,3,15,6,,0.02,8,Snow,360
2013-2-18,21,14,6,13,5,1,84,76,62,30.00,29.85,29.63,10,7,1,12,7,,0.04,8,Snow,341
2013-2-19,7,0,-7,0,-5,-11,87,77,65,29.99,29.80,29.40,10,10,3,7,4,,0.04,6,Snow,310
2013-2-20,9,2,-4,4,0,-3,88,83,71,29.52,29.33,29.16,10,5,1,4,0,,0.04,8,Snow,124
2013-2-21,15,0,-15,6,-7,-20,91,79,58,29.42,29.34,29.22,10,10,5,4,2,,0.00,3,Snow,289
2013-2-22,10,-3,-16,6,-4,-18,88,80,62,29.53,29.37,29.13,10,10,3,7,2,,0.00,7,Snow,351
2013-2-23,16,7,-2,6,0,-5,91,77,54,29.52,29.41,29.27,10,10,10,10,7,,0.00,6,,347
2013-2-24,18,4,-11,11,0,-15,96,84,56,29.80,29.62,29.39,10,9,1,7,4,,0.00,5,,333
2013-2-25,27,10,-8,10,0,-8,91,76,32,29.91,29.84,29.65,10,10,10,7,3,,0.00,3,,335
2013-2-26,21,5,-11,5,-3,-14,88,75,48,29.81,29.68,29.42,10,10,10,5,1,,0.00,4,,95
2013-2-27,25,8,-9,7,2,-13,87,71,43,29.57,29.51,29.35,10,10,10,6,2,,0.00,5,,325
2013-2-28,26,10,-6,12,7,-5,96,71,39,29.55,29.44,29.27,10,10,10,9,3,,0.00,7,,280